createdAt,value
2018-11-10T00:00:19.261Z,27.03
2018-11-10T00:02:48.649Z,26.30
2018-11-10T00:05:17.861Z,27.00
2018-11-10T00:07:46.371Z,25.00
2018-11-10T00:10:14.916Z,25.07
2018-11-10T00:12:43.407Z,24.20
2018-11-10T00:15:13.234Z,24.83
2018-11-10T00:17:41.702Z,24.47
2018-11-10T00:20:10.604Z,25.53
2018-11-10T00:22:40.200Z,25.70
2018-11-10T00:25:10.124Z,25.13
2018-11-10T00:27:38.632Z,25.40
2018-11-10T00:30:08.725Z,25.77
2018-11-10T00:32:37.191Z,25.53
2018-11-10T00:35:06.312Z,25.20
2018-11-10T00:37:34.950Z,24.30
2018-11-10T00:40:03.476Z,26.47
2018-11-10T00:42:32.130Z,25.80
2018-11-10T00:45:00.571Z,25.87
2018-11-10T00:47:29.070Z,26.03
2018-11-10T00:49:57.566Z,25.83
2018-11-10T00:52:26.025Z,26.60
2018-11-10T00:54:54.546Z,26.47
2018-11-10T00:57:23.036Z,28.17
2018-11-10T00:59:51.536Z,26.20
2018-11-10T01:02:20.065Z,26.40
2018-11-10T01:04:48.500Z,26.93
2018-11-10T01:07:17.023Z,26.20
2018-11-10T01:09:45.533Z,24.83
2018-11-10T01:12:14.016Z,27.50
2018-11-10T01:14:42.522Z,26.63
2018-11-10T01:17:10.984Z,26.60
2018-11-10T01:19:39.461Z,27.40
2018-11-10T01:22:07.944Z,26.20
2018-11-10T01:24:36.483Z,26.47
2018-11-10T01:27:05.225Z,26.67
2018-11-10T01:29:33.696Z,26.27
2018-11-10T01:32:02.117Z,25.37
2018-11-10T01:34:30.559Z,25.43
2018-11-10T01:36:59.008Z,25.50
2018-11-10T01:39:27.435Z,26.10
2018-11-10T01:41:55.939Z,26.00
2018-11-10T01:44:24.357Z,25.67
2018-11-10T01:46:52.871Z,24.30
2018-11-10T01:49:21.414Z,25.27
2018-11-10T01:51:49.954Z,25.10
2018-11-10T01:54:18.439Z,23.77
2018-11-10T01:56:47.047Z,24.77
2018-11-10T01:59:15.563Z,24.93
2018-11-10T02:01:44.015Z,25.07
2018-11-10T02:04:12.483Z,25.53
2018-11-10T02:06:41.027Z,23.10
2018-11-10T02:09:10.250Z,24.20
2018-11-10T02:11:38.698Z,23.73
2018-11-10T02:14:07.766Z,23.60
2018-11-10T02:16:36.223Z,24.80
2018-11-10T02:19:04.987Z,23.97
2018-11-10T02:21:33.400Z,24.40
2018-11-10T02:24:01.888Z,23.57
2018-11-10T02:26:30.564Z,24.37
2018-11-10T02:28:59.335Z,24.70
2018-11-10T02:31:27.782Z,24.13
2018-11-10T02:33:56.224Z,23.77
2018-11-10T02:36:24.660Z,24.37
2018-11-10T02:38:53.206Z,24.83
2018-11-10T02:41:21.624Z,23.07
2018-11-10T02:43:50.055Z,24.83
2018-11-10T02:46:18.553Z,24.63
2018-11-10T02:48:46.974Z,24.83
2018-11-10T02:51:15.416Z,23.20
2018-11-10T02:53:43.880Z,22.17
2018-11-10T02:56:12.339Z,24.23
2018-11-10T02:58:40.814Z,24.93
2018-11-10T03:01:09.629Z,23.37
2018-11-10T03:03:38.103Z,25.90
2018-11-10T03:06:06.727Z,23.97
2018-11-10T03:08:35.184Z,24.10
2018-11-10T03:11:03.610Z,25.77
2018-11-10T03:13:32.012Z,25.23
2018-11-10T03:16:00.448Z,23.33
2018-11-10T03:18:29.921Z,22.47
2018-11-10T03:20:58.315Z,24.00
2018-11-10T03:23:26.735Z,23.23
2018-11-10T03:25:55.205Z,24.40
2018-11-10T03:28:23.663Z,23.67
2018-11-10T03:30:52.111Z,23.77
2018-11-10T03:33:20.555Z,24.40
2018-11-10T03:35:49.092Z,22.00
2018-11-10T03:38:17.603Z,23.00
2018-11-10T03:40:46.115Z,21.97
2018-11-10T03:43:14.673Z,22.67
2018-11-10T03:45:43.591Z,22.20
2018-11-10T03:48:12.053Z,23.30
2018-11-10T03:50:40.533Z,22.47
2018-11-10T03:53:08.940Z,21.30
2018-11-10T03:55:37.422Z,22.13
2018-11-10T03:58:05.907Z,23.10
2018-11-10T04:00:34.379Z,22.53
2018-11-10T04:03:02.882Z,23.07
2018-11-10T04:05:31.366Z,23.40
2018-11-10T04:08:00.054Z,23.83
2018-11-10T04:10:28.534Z,24.47
2018-11-10T04:12:56.989Z,24.30
2018-11-10T04:15:25.481Z,25.37
2018-11-10T04:17:53.968Z,23.73
2018-11-10T04:20:22.534Z,25.87
2018-11-10T04:22:50.941Z,26.07
2018-11-10T04:25:19.357Z,24.90
2018-11-10T04:27:47.880Z,24.73
2018-11-10T04:30:16.356Z,23.73
2018-11-10T04:32:44.852Z,23.83
2018-11-10T04:35:13.304Z,23.33
2018-11-10T04:37:42.082Z,23.93
2018-11-10T04:40:11.286Z,25.40
2018-11-10T04:42:40.176Z,24.20
2018-11-10T04:45:09.684Z,23.97
2018-11-10T04:47:38.204Z,23.23
2018-11-10T04:50:07.958Z,25.00
2018-11-10T04:52:36.409Z,24.43
2018-11-10T04:55:05.064Z,22.77
2018-11-10T04:57:33.543Z,24.60
2018-11-10T05:00:02.193Z,24.70
2018-11-10T05:02:30.703Z,24.53
2018-11-10T05:04:59.255Z,23.40
2018-11-10T05:07:27.716Z,25.03
2018-11-10T05:09:56.162Z,24.33
2018-11-10T05:12:24.629Z,24.00
2018-11-10T05:14:53.032Z,25.67
2018-11-10T05:17:21.485Z,24.53
2018-11-10T05:19:50.081Z,24.27
2018-11-10T05:22:18.512Z,24.80
2018-11-10T05:24:46.975Z,24.03
2018-11-10T05:27:15.418Z,23.63
2018-11-10T05:29:43.880Z,23.10
2018-11-10T05:32:12.412Z,24.53
2018-11-10T05:34:40.953Z,22.90
2018-11-10T05:37:09.499Z,22.03
2018-11-10T05:39:37.963Z,21.13
2018-11-10T05:42:06.668Z,22.77
2018-11-10T05:44:35.200Z,21.07
2018-11-10T05:47:05.977Z,20.97
2018-11-10T05:49:34.463Z,21.83
2018-11-10T05:52:02.941Z,20.77
2018-11-10T05:54:31.391Z,20.60
2018-11-10T05:56:59.882Z,19.73
2018-11-10T05:59:28.831Z,19.03
2018-11-10T06:01:57.691Z,20.27
2018-11-10T06:04:26.111Z,19.37
2018-11-10T06:06:54.787Z,19.67
2018-11-10T06:09:23.287Z,19.17
2018-11-10T06:11:51.742Z,18.60
2018-11-10T06:14:20.165Z,19.17
2018-11-10T06:16:48.659Z,19.20
2018-11-10T06:19:17.285Z,26.40
2018-11-10T06:21:46.758Z,19.77
2018-11-10T06:24:15.228Z,18.67
2018-11-10T06:26:43.696Z,18.57
2018-11-10T06:29:12.108Z,18.40
2018-11-10T06:31:40.518Z,18.03
2018-11-10T06:34:08.986Z,17.93
2018-11-10T06:36:37.467Z,17.77
2018-11-10T06:39:09.060Z,17.73
2018-11-10T06:41:37.588Z,16.87
2018-11-10T06:44:06.059Z,16.93
2018-11-10T06:46:34.504Z,16.60
2018-11-10T06:49:02.936Z,22.27
2018-11-10T06:51:31.411Z,16.57
2018-11-10T06:53:59.834Z,15.67
2018-11-10T06:56:28.261Z,16.00
2018-11-10T06:58:56.707Z,14.63
2018-11-10T07:01:25.301Z,14.60
2018-11-10T07:03:53.845Z,14.97
2018-11-10T07:06:22.322Z,14.87
2018-11-10T07:08:51.048Z,14.33
2018-11-10T07:11:19.533Z,13.53
2018-11-10T07:13:47.973Z,13.23
2018-11-10T07:16:16.421Z,13.67
2018-11-10T07:18:44.913Z,12.33
2018-11-10T07:21:13.399Z,12.77
2018-11-10T07:23:41.853Z,12.73
2018-11-10T07:26:10.337Z,12.07
2018-11-10T07:28:38.822Z,12.80
2018-11-10T07:31:07.397Z,11.53
2018-11-10T07:33:35.905Z,12.07
2018-11-10T07:36:04.401Z,11.53
2018-11-10T07:38:33.315Z,11.03
2018-11-10T07:41:01.813Z,11.07
2018-11-10T07:43:30.285Z,11.00
2018-11-10T07:45:58.841Z,11.50
2018-11-10T07:48:27.401Z,11.07
2018-11-10T07:50:55.923Z,11.17
2018-11-10T07:53:24.343Z,10.80
2018-11-10T07:55:52.851Z,10.40
2018-11-10T07:58:21.287Z,9.77
2018-11-10T08:00:49.785Z,9.73
2018-11-10T08:03:18.375Z,10.50
2018-11-10T08:05:46.932Z,11.10
2018-11-10T08:08:15.459Z,11.00
2018-11-10T08:11:06.353Z,10.57
2018-11-10T08:22:07.257Z,9.57
2018-11-10T08:24:36.133Z,10.67
2018-11-10T08:27:04.706Z,10.27
2018-11-10T08:32:23.869Z,10.47
2018-11-10T08:34:52.403Z,9.80
2018-11-10T08:37:20.938Z,10.40
2018-11-10T08:39:49.464Z,10.40
2018-11-10T08:42:17.954Z,10.30
2018-11-10T08:44:46.574Z,10.27
2018-11-10T08:47:15.108Z,10.67
2018-11-10T08:49:43.604Z,9.73
2018-11-10T08:52:12.102Z,9.70
2018-11-10T08:54:40.827Z,9.97
2018-11-10T08:57:09.477Z,10.27
2018-11-10T08:59:37.994Z,9.83
2018-11-10T09:02:06.916Z,9.80
2018-11-10T09:04:35.466Z,9.77
2018-11-10T09:07:04.140Z,10.10
2018-11-10T09:09:32.860Z,10.60
2018-11-10T09:12:01.572Z,10.10
2018-11-10T09:14:30.164Z,9.73
2018-11-10T09:16:58.638Z,8.87
2018-11-10T09:19:27.212Z,9.20
2018-11-10T09:21:55.581Z,9.00
2018-11-10T09:24:24.454Z,9.20
2018-11-10T09:26:53.425Z,9.60
2018-11-10T09:29:21.963Z,9.73
2018-11-10T09:31:50.477Z,9.53
2018-11-10T09:34:19.373Z,9.43
2018-11-10T09:36:47.818Z,9.73
2018-11-10T09:39:16.505Z,9.83
2018-11-10T09:41:44.987Z,9.23
2018-11-10T09:44:14.165Z,9.57
2018-11-10T09:46:42.594Z,9.43
2018-11-10T09:49:13.347Z,9.50
2018-11-10T09:51:41.895Z,9.40
2018-11-10T09:54:10.432Z,9.40
2018-11-10T09:56:39.137Z,10.57
2018-11-10T09:59:16.447Z,10.57
2018-11-10T10:01:45.799Z,9.20
2018-11-10T10:04:14.282Z,9.47
2018-11-10T10:06:42.726Z,9.90
2018-11-10T10:09:11.804Z,9.47
2018-11-10T10:11:40.905Z,10.10
2018-11-10T10:14:10.288Z,10.27
2018-11-10T10:16:39.348Z,10.10
2018-11-10T10:19:08.747Z,10.37
2018-11-10T10:21:37.268Z,10.07
2018-11-10T10:24:06.480Z,10.33
2018-11-10T10:26:35.014Z,11.10
2018-11-10T10:29:03.577Z,10.57
2018-11-10T10:31:32.103Z,10.93
2018-11-10T10:34:00.817Z,10.30
2018-11-10T10:36:29.229Z,11.53
2018-11-10T10:38:57.726Z,11.63
2018-11-10T10:41:26.342Z,11.17
2018-11-10T10:43:54.835Z,10.83
2018-11-10T10:46:23.425Z,11.33
2018-11-10T10:48:53.009Z,10.87
2018-11-10T10:51:21.406Z,11.10
2018-11-10T10:53:49.916Z,11.50
2018-11-10T10:56:18.577Z,11.70
2018-11-10T10:58:47.204Z,11.57
2018-11-10T11:01:20.994Z,11.47
2018-11-10T11:03:54.743Z,11.13
2018-11-10T11:06:24.160Z,11.90
2018-11-10T11:08:52.667Z,12.27
2018-11-10T11:11:21.205Z,11.57
2018-11-10T11:13:49.663Z,11.70
2018-11-10T11:16:18.090Z,11.13
2018-11-10T11:18:46.569Z,11.93
2018-11-10T11:21:14.993Z,13.63
2018-11-10T11:23:43.482Z,11.70
2018-11-10T11:26:11.999Z,10.63
2018-11-10T11:28:40.405Z,12.10
2018-11-10T11:31:09.001Z,11.40
2018-11-10T11:33:37.507Z,11.03
2018-11-10T11:36:06.025Z,10.80
2018-11-10T11:38:34.745Z,10.10
2018-11-10T11:41:03.256Z,10.63
2018-11-10T11:43:31.861Z,11.53
2018-11-10T11:46:00.334Z,10.30
2018-11-10T11:48:28.800Z,11.10
2018-11-10T11:50:57.386Z,11.80
2018-11-10T11:53:25.861Z,10.83
2018-11-10T11:55:54.341Z,11.33
2018-11-10T11:58:22.969Z,12.13
2018-11-10T12:00:51.785Z,12.13
2018-11-10T12:03:20.475Z,11.77
2018-11-10T12:05:48.973Z,11.40
2018-11-10T12:08:17.487Z,12.10
2018-11-10T12:10:46.133Z,12.57
2018-11-10T12:13:14.703Z,11.97
2018-11-10T12:15:43.132Z,11.87
2018-11-10T12:18:11.774Z,12.00
2018-11-10T12:20:40.376Z,11.10
2018-11-10T12:23:08.836Z,11.77
2018-11-10T12:25:37.418Z,11.27
2018-11-10T12:28:06.682Z,11.53
2018-11-10T12:30:35.250Z,11.33
2018-11-10T12:33:03.856Z,11.77
2018-11-10T12:35:32.453Z,11.93
2018-11-10T12:38:00.929Z,12.57
2018-11-10T12:40:29.437Z,11.63
2018-11-10T12:42:57.969Z,12.57
2018-11-10T12:45:27.392Z,11.87
2018-11-10T12:47:55.908Z,11.83
2018-11-10T12:50:24.428Z,11.60
2018-11-10T12:52:53.124Z,10.93
2018-11-10T12:55:21.655Z,12.23
2018-11-10T12:57:50.163Z,12.87
2018-11-10T13:00:18.715Z,11.17
2018-11-10T13:02:47.734Z,12.17
2018-11-10T13:05:16.956Z,12.90
2018-11-10T13:07:46.408Z,12.67
2018-11-10T13:10:14.964Z,12.17
2018-11-10T13:12:43.885Z,12.67
2018-11-10T13:15:12.406Z,11.97
2018-11-10T13:17:40.961Z,12.77
2018-11-10T13:20:11.957Z,12.87
2018-11-10T13:22:40.667Z,12.60
2018-11-10T13:25:10.321Z,12.53
2018-11-10T13:27:39.153Z,11.33
2018-11-10T13:30:09.295Z,11.93
2018-11-10T13:32:37.697Z,12.43
2018-11-10T13:35:07.227Z,12.27
2018-11-10T13:37:35.708Z,12.10
2018-11-10T13:40:04.253Z,11.63
2018-11-10T13:42:32.737Z,12.23
2018-11-10T13:45:01.348Z,11.50
2018-11-10T13:47:30.077Z,11.53
2018-11-10T13:50:00.097Z,11.93
2018-11-10T13:52:29.028Z,11.80
2018-11-10T13:54:57.033Z,11.23
2018-11-10T13:57:25.525Z,12.10
2018-11-10T13:59:54.065Z,12.13
2018-11-10T14:02:22.704Z,11.60
2018-11-10T14:04:51.186Z,11.13
2018-11-10T14:07:20.009Z,11.97
2018-11-10T14:09:48.606Z,11.87
2018-11-10T14:12:17.249Z,11.90
2018-11-10T14:14:46.563Z,11.27
2018-11-10T14:17:15.542Z,11.10
2018-11-10T14:19:44.069Z,10.87
2018-11-10T14:22:12.509Z,11.03
2018-11-10T14:24:41.401Z,12.90
2018-11-10T14:27:10.043Z,11.47
2018-11-10T14:29:38.630Z,10.23
2018-11-10T14:32:07.172Z,10.67
2018-11-10T14:34:36.236Z,10.27
2018-11-10T14:37:04.908Z,10.77
2018-11-10T14:39:33.365Z,10.70
2018-11-10T14:42:01.942Z,11.30
2018-11-10T14:44:31.903Z,10.47
2018-11-10T14:47:00.398Z,10.03
2018-11-10T14:49:28.856Z,10.87
2018-11-10T14:51:57.408Z,10.03
2018-11-10T14:54:25.918Z,10.33
2018-11-10T14:56:54.485Z,11.30
2018-11-10T14:59:22.900Z,11.97
2018-11-10T15:01:51.347Z,11.20
2018-11-10T15:04:20.119Z,11.33
2018-11-10T15:06:48.541Z,11.37
2018-11-10T15:09:17.040Z,10.30
2018-11-10T15:11:45.611Z,11.43
2018-11-10T15:14:14.002Z,11.00
2018-11-10T15:16:42.484Z,10.53
2018-11-10T15:19:11.321Z,10.47
2018-11-10T15:21:39.780Z,10.47
2018-11-10T15:24:08.228Z,10.23
2018-11-10T15:26:36.675Z,11.50
2018-11-10T15:29:05.776Z,10.70
2018-11-10T15:31:34.228Z,10.90
2018-11-10T15:34:03.229Z,11.33
2018-11-10T15:36:31.639Z,10.10
2018-11-10T15:39:00.569Z,10.33
2018-11-10T15:41:29.337Z,10.70
2018-11-10T15:43:58.017Z,10.20
2018-11-10T15:46:26.424Z,10.40
2018-11-10T15:48:55.173Z,11.10
2018-11-10T15:51:25.221Z,11.53
2018-11-10T15:53:54.157Z,11.43
2018-11-10T15:56:22.633Z,11.53
2018-11-10T15:58:51.155Z,12.23
2018-11-10T16:01:19.622Z,11.03
2018-11-10T16:03:48.068Z,11.33
2018-11-10T16:06:17.009Z,11.57
2018-11-10T16:08:45.481Z,10.80
2018-11-10T16:11:13.914Z,10.87
2018-11-10T16:13:42.361Z,11.10
2018-11-10T16:16:10.807Z,10.23
2018-11-10T16:18:39.966Z,10.37
2018-11-10T16:21:08.489Z,11.40
2018-11-10T16:23:36.941Z,12.07
2018-11-10T16:26:06.197Z,10.60
2018-11-10T16:28:34.711Z,11.80
2018-11-10T16:31:03.330Z,11.73
2018-11-10T16:33:32.197Z,12.07
2018-11-10T16:36:00.644Z,11.67
2018-11-10T16:38:29.195Z,11.93
2018-11-10T16:40:57.605Z,12.33
2018-11-10T16:43:26.085Z,11.93
2018-11-10T16:45:55.099Z,12.80
2018-11-10T16:48:23.568Z,12.20
2018-11-10T16:50:52.061Z,11.80
2018-11-10T16:53:20.515Z,12.10
2018-11-10T16:55:48.891Z,11.93
2018-11-10T16:58:17.343Z,11.97
2018-11-10T17:00:45.836Z,11.60
2018-11-10T17:03:14.242Z,11.10
2018-11-10T17:05:42.696Z,11.23
2018-11-10T17:08:11.144Z,11.43
2018-11-10T17:10:39.594Z,11.80
2018-11-10T17:13:08.006Z,11.37
2018-11-10T17:15:36.534Z,12.13
2018-11-10T17:18:04.950Z,11.50
2018-11-10T17:20:34.412Z,12.43
2018-11-10T17:23:02.943Z,12.03
2018-11-10T17:25:31.382Z,12.40
2018-11-10T17:27:59.824Z,12.10
2018-11-10T17:30:28.309Z,12.10
2018-11-10T17:32:56.735Z,11.93
2018-11-10T17:35:25.186Z,12.43
2018-11-10T17:37:53.982Z,13.40
2018-11-10T17:40:22.525Z,14.03
2018-11-10T17:42:50.894Z,13.57
2018-11-10T17:45:19.640Z,12.93
2018-11-10T17:47:48.006Z,12.83
2018-11-10T17:50:17.659Z,12.70
2018-11-10T17:52:46.146Z,13.10
2018-11-10T17:55:15.669Z,11.83
2018-11-10T17:57:45.965Z,12.57
2018-11-10T18:00:14.539Z,13.67
2018-11-10T18:02:43.005Z,12.97
2018-11-10T18:05:13.345Z,12.70
2018-11-10T18:07:41.712Z,13.27
2018-11-10T18:10:12.129Z,12.43
2018-11-10T18:12:40.906Z,13.03
2018-11-10T18:15:10.102Z,11.83
2018-11-10T18:17:39.118Z,13.67
2018-11-10T18:20:08.373Z,13.13
2018-11-10T18:22:36.999Z,14.10
2018-11-10T18:25:05.740Z,12.93
2018-11-10T18:27:34.287Z,14.17
2018-11-10T18:30:02.851Z,13.50
2018-11-10T18:32:31.664Z,12.77
2018-11-10T18:35:00.074Z,13.57
2018-11-10T18:37:32.011Z,14.10
2018-11-10T18:40:00.799Z,13.63
2018-11-10T18:42:31.430Z,12.70
2018-11-10T18:44:59.885Z,13.03
2018-11-10T18:47:28.376Z,13.67
2018-11-10T18:49:56.845Z,13.03
2018-11-10T18:52:25.351Z,13.20
2018-11-10T18:54:53.715Z,13.80
2018-11-10T18:57:22.302Z,13.33
2018-11-10T18:59:50.602Z,13.17
2018-11-10T19:02:19.092Z,12.53
2018-11-10T19:04:47.623Z,13.57
2018-11-10T19:07:16.070Z,13.33
2018-11-10T19:09:44.554Z,13.03
2018-11-10T19:12:13.000Z,13.73
2018-11-10T19:14:41.459Z,12.87
2018-11-10T19:17:09.989Z,12.73
2018-11-10T19:19:39.000Z,12.90
2018-11-10T19:22:07.423Z,12.37
2018-11-10T19:24:35.968Z,11.87
2018-11-10T19:27:04.453Z,12.17
2018-11-10T19:29:32.884Z,12.43
2018-11-10T19:32:01.457Z,13.20
2018-11-10T19:34:29.940Z,11.80
2018-11-10T19:36:58.416Z,12.47
2018-11-10T19:39:26.833Z,12.57
2018-11-10T19:41:55.525Z,12.53
2018-11-10T19:44:23.984Z,12.47
2018-11-10T19:46:52.416Z,13.70
2018-11-10T19:49:20.832Z,12.23
2018-11-10T19:51:49.657Z,12.97
2018-11-10T19:54:17.800Z,12.80
2018-11-10T19:56:46.233Z,11.97
2018-11-10T19:59:14.631Z,13.23
2018-11-10T20:01:43.019Z,12.70
2018-11-10T20:04:11.466Z,12.63
2018-11-10T20:06:40.582Z,13.07
2018-11-10T20:09:09.927Z,13.97
2018-11-10T20:11:38.498Z,13.33
2018-11-10T20:14:07.466Z,13.27
2018-11-10T20:16:35.832Z,12.77
2018-11-10T20:19:04.550Z,13.33
2018-11-10T20:21:33.071Z,13.37
2018-11-10T20:24:01.544Z,13.03
2018-11-10T20:26:30.022Z,13.30
2018-11-10T20:28:59.527Z,12.30
2018-11-10T20:31:28.900Z,13.47
2018-11-10T20:33:57.380Z,13.20
2018-11-10T20:36:25.863Z,13.80
2018-11-10T20:38:54.431Z,13.60
2018-11-10T20:41:22.908Z,13.70
2018-11-10T20:43:51.363Z,13.13
2018-11-10T20:46:19.779Z,13.10
2018-11-10T20:48:48.278Z,13.90
2018-11-10T20:51:16.717Z,13.30
2018-11-10T20:53:45.184Z,14.50
2018-11-10T20:56:13.642Z,13.27
2018-11-10T20:58:42.060Z,14.80
2018-11-10T21:01:10.669Z,13.50
2018-11-10T21:03:39.127Z,14.87
2018-11-10T21:06:07.557Z,13.83
2018-11-10T21:08:37.768Z,14.63
2018-11-10T21:11:07.216Z,14.40
2018-11-10T21:13:35.705Z,14.30
2018-11-10T21:16:04.234Z,14.83
2018-11-10T21:18:32.720Z,14.00
2018-11-10T21:21:01.969Z,14.43
2018-11-10T21:23:30.455Z,15.10
2018-11-10T21:25:58.893Z,13.67
2018-11-10T21:28:27.369Z,14.43
2018-11-10T21:30:56.349Z,15.40
2018-11-10T21:33:24.806Z,14.67
2018-11-10T21:35:53.208Z,14.67
2018-11-10T21:38:22.887Z,14.27
2018-11-10T21:40:51.373Z,14.83
2018-11-10T21:43:20.115Z,14.30
2018-11-10T21:45:48.546Z,14.13
2018-11-10T21:48:17.069Z,14.63
2018-11-10T21:50:45.535Z,16.87
2018-11-10T21:53:13.984Z,17.17
2018-11-10T21:55:42.977Z,14.83
2018-11-10T21:58:11.439Z,13.97
2018-11-10T22:00:39.926Z,14.50
2018-11-10T22:03:08.569Z,14.00
2018-11-10T22:05:37.475Z,14.60
2018-11-10T22:08:05.971Z,13.33
2018-11-10T22:10:34.396Z,14.30
2018-11-10T22:13:02.858Z,14.53
2018-11-10T22:15:31.295Z,14.40
2018-11-10T22:17:59.795Z,13.70
2018-11-10T22:20:28.221Z,14.27
2018-11-10T22:22:56.657Z,14.90
2018-11-10T22:25:25.098Z,14.80
2018-11-10T22:27:54.412Z,14.07
2018-11-10T22:30:23.664Z,15.47
2018-11-10T22:32:52.323Z,14.37
2018-11-10T22:35:21.579Z,14.50
2018-11-10T22:37:50.046Z,13.80
2018-11-10T22:40:20.461Z,13.47
2018-11-10T22:42:50.167Z,15.07
2018-11-10T22:45:20.775Z,13.10
2018-11-10T22:47:49.782Z,13.80
2018-11-10T22:50:19.456Z,13.27
2018-11-10T22:52:48.038Z,14.80
2018-11-10T22:55:16.742Z,13.47
2018-11-10T22:57:45.472Z,13.93
2018-11-10T23:00:17.381Z,14.67
2018-11-10T23:02:48.353Z,14.20
2018-11-10T23:05:17.305Z,14.63
2018-11-10T23:07:45.808Z,14.63
2018-11-10T23:10:15.007Z,15.50
2018-11-10T23:12:44.534Z,14.23
2018-11-10T23:15:13.034Z,12.90
2018-11-10T23:17:42.152Z,13.60
2018-11-10T23:20:12.080Z,14.57
2018-11-10T23:22:40.484Z,14.30
2018-11-10T23:25:10.831Z,13.80
2018-11-10T23:27:39.279Z,12.90
2018-11-10T23:30:10.954Z,14.23
2018-11-10T23:32:40.454Z,14.50
2018-11-10T23:35:09.420Z,14.63
2018-11-10T23:37:37.865Z,14.10
2018-11-10T23:40:07.415Z,14.07
2018-11-10T23:42:35.829Z,14.70
2018-11-10T23:45:04.777Z,15.37
2018-11-10T23:47:33.278Z,14.60
2018-11-10T23:50:01.682Z,14.93
2018-11-10T23:52:30.181Z,15.10
2018-11-10T23:54:58.834Z,15.83
2018-11-10T23:57:27.297Z,14.27
2018-11-10T23:59:55.769Z,15.57
